Time;durP1;ratioP1;P1;durP2;ratioP2;P2;SDS_P1;SDS_P2;PMS_P1;PMS_P2;Temp;Humidity;BMP_temperature;BMP_pressure;BME280_temperature;BME280_humidity;BME280_pressure;Samples;Min_cycle;Max_cycle;Signal;HPM_P1;HPM_P2
2023/05/14 00:01:50;;;;;;;5.00;4.15;;;16.40;99.90;;;;;;4174770;28;20507;-67
2023/05/14 00:03:51;;;;;;;5.18;4.22;;;16.40;99.90;;;;;;4176799;28;20500;-67
2023/05/14 00:05:51;;;;;;;6.68;3.90;;;16.40;99.90;;;;;;4178992;28;20108;-67
2023/05/14 00:07:52;;;;;;;7.07;4.38;;;16.30;99.90;;;;;;4181339;28;20032;-67
2023/05/14 00:09:52;;;;;;;5.57;4.53;;;16.30;99.90;;;;;;4179978;28;25232;-68
2023/05/14 00:11:53;;;;;;;5.70;4.18;;;16.30;99.90;;;;;;4175579;28;20648;-67
2023/05/14 00:13:54;;;;;;;7.60;4.57;;;16.30;99.90;;;;;;4177381;28;20040;-68
2023/05/14 00:15:54;;;;;;;5.28;4.32;;;16.20;99.90;;;;;;4175259;28;20037;-67
2023/05/14 00:17:55;;;;;;;5.47;3.92;;;16.30;99.90;;;;;;4172904;28;20356;-67
2023/05/14 00:19:55;;;;;;;5.88;4.15;;;16.30;99.90;;;;;;4175119;28;20040;-68
2023/05/14 00:21:56;;;;;;;4.50;3.92;;;16.20;99.90;;;;;;4177629;28;20551;-67
2023/05/14 00:23:56;;;;;;;4.40;3.95;;;16.20;99.90;;;;;;4171936;28;20249;-67
2023/05/14 00:25:57;;;;;;;5.20;4.20;;;16.20;99.90;;;;;;4177189;28;20075;-67
2023/05/14 00:27:58;;;;;;;6.78;4.32;;;16.10;99.90;;;;;;4174170;28;20120;-68
2023/05/14 00:29:58;;;;;;;5.88;4.65;;;16.20;99.90;;;;;;4178649;28;20032;-67
2023/05/14 00:31:59;;;;;;;5.50;4.45;;;16.10;99.90;;;;;;4176080;28;20029;-67
2023/05/14 00:33:59;;;;;;;9.25;4.75;;;16.10;99.90;;;;;;4175737;28;20029;-68
2023/05/14 00:36:00;;;;;;;5.63;4.60;;;16.00;99.90;;;;;;4173897;28;20033;-67
2023/05/14 00:38:02;;;;;;;5.82;3.92;;;16.10;99.90;;;;;;4175989;28;20025;-68
2023/05/14 00:40:03;;;;;;;4.90;3.80;;;16.00;99.90;;;;;;4176048;28;20104;-68
2023/05/14 00:42:03;;;;;;;5.15;4.25;;;16.00;99.90;;;;;;4175155;28;20025;-68
2023/05/14 00:44:04;;;;;;;7.20;5.00;;;15.90;99.90;;;;;;4168378;28;20068;-68
2023/05/14 00:46:05;;;;;;;7.32;5.10;;;15.80;99.90;;;;;;4173135;28;20039;-67
2023/05/14 00:48:06;;;;;;;5.43;4.60;;;15.70;99.90;;;;;;4172509;28;20082;-67
2023/05/14 00:50:07;;;;;;;5.80;4.32;;;15.70;99.90;;;;;;4178600;28;20078;-69
2023/05/14 00:52:08;;;;;;;6.63;5.05;;;15.60;99.90;;;;;;4184444;28;20476;-67
2023/05/14 00:54:09;;;;;;;8.68;4.82;;;15.70;99.90;;;;;;4183357;28;20029;-67
2023/05/14 00:56:10;;;;;;;7.13;5.00;;;15.70;99.90;;;;;;4175647;28;20033;-67
2023/05/14 00:58:12;;;;;;;9.25;5.70;;;15.60;99.90;;;;;;4178247;28;20017;-67
2023/05/14 01:00:13;;;;;;;5.97;5.00;;;15.60;99.90;;;;;;4175879;28;20377;-68
2023/05/14 01:02:13;;;;;;;8.18;5.78;;;15.60;99.90;;;;;;4175587;28;20270;-67
2023/05/14 01:04:14;;;;;;;7.70;5.85;;;15.50;99.90;;;;;;4176197;28;20044;-67
2023/05/14 01:06:41;;;;;;;7.10;5.55;;;15.50;99.90;;;;;;4174083;28;20033;-67
2023/05/14 01:08:52;;;;;;;7.43;5.63;;;15.40;99.90;;;;;;4174111;28;20044;-68
2023/05/14 01:11:16;;;;;;;8.65;6.43;;;15.40;99.90;;;;;;4179439;28;20032;-67
2023/05/14 01:13:38;;;;;;;7.25;5.35;;;15.40;99.90;;;;;;4181260;28;20037;-67
2023/05/14 01:15:40;;;;;;;9.98;6.10;;;15.40;99.90;;;;;;4175427;28;20082;-67
2023/05/14 01:18:08;;;;;;;8.63;5.78;;;15.30;99.90;;;;;;4172028;28;20046;-67
2023/05/14 01:20:10;;;;;;;8.50;6.00;;;15.30;99.90;;;;;;4178154;28;20021;-69
2023/05/14 01:22:11;;;;;;;6.43;5.15;;;15.30;99.90;;;;;;4182944;28;20029;-68
2023/05/14 01:24:11;;;;;;;8.35;6.18;;;15.30;99.90;;;;;;4183228;28;20377;-67
2023/05/14 01:26:12;;;;;;;6.38;5.18;;;15.30;99.90;;;;;;4179895;28;20029;-67
2023/05/14 01:28:30;;;;;;;8.07;5.75;;;15.30;99.90;;;;;;4178501;28;20028;-67
2023/05/14 01:30:44;;;;;;;8.13;5.70;;;15.30;99.90;;;;;;4174411;28;20095;-67
2023/05/14 01:32:54;;;;;;;9.48;5.75;;;15.30;99.90;;;;;;4175909;28;20029;-67
2023/05/14 01:34:57;;;;;;;7.18;4.88;;;15.30;99.90;;;;;;4179862;28;20056;-68
2023/05/14 01:36:59;;;;;;;6.60;5.40;;;15.20;99.90;;;;;;4177666;28;20036;-67
2023/05/14 01:39:00;;;;;;;5.65;4.90;;;15.30;99.90;;;;;;4181940;28;20041;-68
2023/05/14 01:41:02;;;;;;;5.75;4.82;;;15.30;99.90;;;;;;4180442;28;20155;-66
2023/05/14 01:43:03;;;;;;;7.03;5.22;;;15.30;99.90;;;;;;4181360;28;20029;-67
2023/05/14 01:45:05;;;;;;;5.75;4.70;;;15.30;99.90;;;;;;4173764;28;20116;-68
2023/05/14 01:47:05;;;;;;;7.03;5.00;;;15.30;99.90;;;;;;4179070;28;20082;-68
2023/05/14 01:49:06;;;;;;;7.55;5.53;;;15.30;99.90;;;;;;4185691;28;20029;-67
2023/05/14 01:51:06;;;;;;;5.90;5.05;;;15.30;99.90;;;;;;4173935;28;20040;-67
2023/05/14 01:53:07;;;;;;;7.78;5.35;;;15.30;99.90;;;;;;4177997;28;20033;-68
2023/05/14 01:55:08;;;;;;;6.45;5.10;;;15.20;99.90;;;;;;4183913;28;20120;-70
2023/05/14 01:57:08;;;;;;;6.05;4.90;;;15.20;99.90;;;;;;4180167;28;20056;-67
2023/05/14 01:59:09;;;;;;;6.30;5.20;;;15.20;99.90;;;;;;4176570;28;20025;-67
2023/05/14 02:01:10;;;;;;;6.57;4.82;;;15.20;99.90;;;;;;4170942;28;20128;-69
2023/05/14 02:03:10;;;;;;;6.80;5.03;;;15.20;99.90;;;;;;4181277;28;20392;-67
2023/05/14 02:05:12;;;;;;;7.00;5.38;;;15.20;99.90;;;;;;4178105;28;20087;-67
2023/05/14 02:07:12;;;;;;;8.80;5.75;;;15.20;99.90;;;;;;4175887;28;21766;-67
2023/05/14 02:09:13;;;;;;;7.18;5.45;;;15.20;99.90;;;;;;4181483;28;20094;-67
2023/05/14 02:11:13;;;;;;;7.63;5.57;;;15.10;99.90;;;;;;4176921;28;20404;-67
2023/05/14 02:13:14;;;;;;;6.70;5.20;;;15.10;99.90;;;;;;4176773;28;20085;-67
2023/05/14 02:15:14;;;;;;;7.35;5.47;;;15.10;99.90;;;;;;4178312;28;20072;-67
2023/05/14 02:17:16;;;;;;;7.38;5.13;;;15.10;99.90;;;;;;4176395;28;20037;-67
2023/05/14 02:19:17;;;;;;;7.72;5.43;;;15.10;99.90;;;;;;4179230;28;20053;-67
2023/05/14 02:21:17;;;;;;;9.07;5.18;;;15.10;99.90;;;;;;4174952;28;20068;-67
2023/05/14 02:23:18;;;;;;;6.28;5.20;;;15.00;99.90;;;;;;4175305;28;20045;-67
2023/05/14 02:25:18;;;;;;;6.03;5.20;;;15.00;99.90;;;;;;4176523;28;20163;-67
2023/05/14 02:27:20;;;;;;;6.57;5.32;;;15.00;99.90;;;;;;4178602;28;20028;-67
2023/05/14 02:29:20;;;;;;;7.70;5.20;;;15.00;99.90;;;;;;4179936;28;21550;-67
2023/05/14 02:31:21;;;;;;;7.03;5.50;;;15.00;99.90;;;;;;4177616;28;20036;-67
2023/05/14 02:33:21;;;;;;;7.43;5.32;;;15.00;99.90;;;;;;4177137;28;20040;-67
2023/05/14 02:35:22;;;;;;;6.15;5.40;;;14.90;99.90;;;;;;4184815;28;20462;-67
2023/05/14 02:37:23;;;;;;;7.57;5.38;;;14.90;99.90;;;;;;4180425;28;20379;-67
2023/05/14 02:39:23;;;;;;;7.38;5.78;;;14.90;99.90;;;;;;4180736;28;20075;-67
2023/05/14 02:41:24;;;;;;;7.38;5.47;;;14.90;99.90;;;;;;4176029;28;20045;-68
2023/05/14 02:43:24;;;;;;;6.40;5.22;;;14.80;99.90;;;;;;4177296;28;20073;-66
2023/05/14 02:45:25;;;;;;;8.15;5.60;;;14.80;99.90;;;;;;4173935;28;20036;-67
2023/05/14 02:47:26;;;;;;;6.82;5.28;;;14.80;99.90;;;;;;4185128;28;20069;-67
2023/05/14 02:49:26;;;;;;;7.10;5.72;;;14.80;99.90;;;;;;4177086;28;20048;-67
2023/05/14 02:51:27;;;;;;;6.13;5.22;;;14.80;99.90;;;;;;4180637;28;20035;-67
2023/05/14 02:53:27;;;;;;;6.65;5.45;;;14.70;99.90;;;;;;4175407;28;20091;-67
2023/05/14 02:55:28;;;;;;;6.60;5.38;;;14.80;99.90;;;;;;4172882;28;20048;-67
2023/05/14 02:57:29;;;;;;;8.43;5.80;;;14.70;99.90;;;;;;4175601;28;20105;-67
2023/05/14 02:59:30;;;;;;;5.57;4.95;;;14.70;99.90;;;;;;4177163;28;20065;-67
2023/05/14 03:01:31;;;;;;;6.47;5.07;;;14.70;99.90;;;;;;4176966;28;20128;-66
2023/05/14 03:03:32;;;;;;;5.53;4.72;;;14.70;99.90;;;;;;4177971;28;20033;-66
2023/05/14 03:05:33;;;;;;;6.28;5.57;;;14.70;99.90;;;;;;4179746;28;20428;-68
2023/05/14 03:07:33;;;;;;;9.07;5.53;;;14.70;99.90;;;;;;4177535;28;20037;-67
2023/05/14 03:09:34;;;;;;;7.00;5.55;;;14.70;99.90;;;;;;4179497;28;20051;-67
2023/05/14 03:11:34;;;;;;;7.68;5.63;;;14.60;99.90;;;;;;4174188;28;20549;-66
2023/05/14 03:13:35;;;;;;;6.70;5.25;;;14.60;99.90;;;;;;4176220;28;20029;-67
2023/05/14 03:15:36;;;;;;;7.60;6.22;;;14.60;99.90;;;;;;4176334;28;20033;-67
2023/05/14 03:17:36;;;;;;;9.13;6.07;;;14.60;99.90;;;;;;4177099;28;20039;-67
2023/05/14 03:19:37;;;;;;;7.28;5.47;;;14.60;99.90;;;;;;4174433;28;20041;-67
2023/05/14 03:21:37;;;;;;;7.25;5.75;;;14.50;99.90;;;;;;4174057;28;20421;-67
2023/05/14 03:23:38;;;;;;;6.82;5.60;;;14.50;99.90;;;;;;4174562;28;20130;-67
2023/05/14 03:25:38;;;;;;;7.38;4.95;;;14.50;99.90;;;;;;4173076;28;20040;-66
2023/05/14 03:27:39;;;;;;;7.25;5.82;;;14.50;99.90;;;;;;4172824;28;20037;-66
2023/05/14 03:29:40;;;;;;;6.32;4.93;;;14.50;99.90;;;;;;4177761;28;20037;-66
2023/05/14 03:31:40;;;;;;;8.18;5.95;;;14.50;99.90;;;;;;4178821;28;20108;-67
2023/05/14 03:33:41;;;;;;;8.27;6.00;;;14.40;99.90;;;;;;4175109;28;20221;-66
2023/05/14 03:35:41;;;;;;;5.95;5.32;;;14.40;99.90;;;;;;4176631;28;20045;-67
2023/05/14 03:37:42;;;;;;;7.05;5.20;;;14.40;99.90;;;;;;4175937;28;20032;-67
2023/05/14 03:39:42;;;;;;;6.80;5.35;;;14.40;99.90;;;;;;4174031;28;20574;-67
2023/05/14 03:41:43;;;;;;;8.50;5.30;;;14.40;99.90;;;;;;4181471;28;20037;-67
2023/05/14 03:43:44;;;;;;;6.35;5.65;;;14.40;99.90;;;;;;4179324;28;20046;-66
2023/05/14 03:45:45;;;;;;;8.00;5.28;;;14.40;99.90;;;;;;4174709;28;20036;-67
2023/05/14 03:47:46;;;;;;;7.82;5.03;;;14.40;99.90;;;;;;4177821;28;20089;-66
2023/05/14 03:49:46;;;;;;;8.75;5.28;;;14.40;99.90;;;;;;4180095;28;20079;-67
2023/05/14 03:51:47;;;;;;;8.30;5.07;;;14.30;99.90;;;;;;4177026;28;20033;-67
2023/05/14 03:53:48;;;;;;;6.10;5.25;;;14.30;99.90;;;;;;4175045;28;20053;-67
2023/05/14 03:55:48;;;;;;;6.50;5.20;;;14.30;99.90;;;;;;4172499;28;20041;-66
2023/05/14 03:57:49;;;;;;;9.05;5.20;;;14.30;99.90;;;;;;4178371;28;20102;-67
2023/05/14 03:59:49;;;;;;;5.80;5.20;;;14.30;99.90;;;;;;4173335;28;20037;-67
2023/05/14 04:01:50;;;;;;;5.28;4.70;;;14.30;99.90;;;;;;4170900;28;20036;-66
2023/05/14 04:03:50;;;;;;;5.65;4.93;;;14.30;99.90;;;;;;4174966;28;20033;-67
2023/05/14 04:05:51;;;;;;;7.18;5.13;;;14.20;99.90;;;;;;4175795;28;20033;-66
2023/05/14 04:07:52;;;;;;;7.07;5.50;;;14.20;99.90;;;;;;4176075;28;20045;-67
2023/05/14 04:09:52;;;;;;;6.78;5.47;;;14.20;99.90;;;;;;4177264;28;20147;-67
2023/05/14 04:11:53;;;;;;;8.23;5.53;;;14.20;99.90;;;;;;4177679;28;20028;-67
2023/05/14 04:13:53;;;;;;;8.85;5.47;;;14.20;99.90;;;;;;4177402;28;20037;-67
2023/05/14 04:15:54;;;;;;;7.32;5.57;;;14.20;99.90;;;;;;4174141;28;20033;-67
2023/05/14 04:17:55;;;;;;;10.05;5.28;;;14.20;99.90;;;;;;4178194;28;20040;-67
2023/05/14 04:19:55;;;;;;;7.07;5.53;;;14.10;99.90;;;;;;4177965;28;20094;-67
2023/05/14 04:21:56;;;;;;;6.43;5.55;;;14.20;99.90;;;;;;4177552;28;20047;-67
2023/05/14 04:23:56;;;;;;;7.13;5.18;;;14.20;99.90;;;;;;4176022;28;20041;-67
2023/05/14 04:25:57;;;;;;;7.05;5.40;;;14.20;99.90;;;;;;4178467;28;20036;-67
2023/05/14 04:27:58;;;;;;;6.13;5.22;;;14.20;99.90;;;;;;4172531;28;20530;-67
2023/05/14 04:29:58;;;;;;;5.93;5.25;;;14.20;99.90;;;;;;4174226;28;20029;-67
2023/05/14 04:31:59;;;;;;;6.18;5.32;;;14.20;99.90;;;;;;4171933;28;20056;-67
2023/05/14 04:34:00;;;;;;;6.60;5.43;;;14.20;99.90;;;;;;4177404;28;20036;-66
2023/05/14 04:36:00;;;;;;;6.78;4.95;;;14.10;99.90;;;;;;4176525;28;20041;-67
2023/05/14 04:38:01;;;;;;;6.22;5.15;;;14.20;99.90;;;;;;4174465;28;20030;-67
2023/05/14 04:40:03;;;;;;;7.07;5.30;;;14.20;99.90;;;;;;4176891;28;20819;-68
2023/05/14 04:42:05;;;;;;;8.40;5.60;;;14.20;99.90;;;;;;4174573;28;20946;-67
2023/05/14 04:44:06;;;;;;;7.78;5.57;;;14.20;99.90;;;;;;4175409;28;20280;-67
2023/05/14 04:46:08;;;;;;;6.38;4.97;;;14.20;99.90;;;;;;4170000;28;20086;-67
2023/05/14 04:48:08;;;;;;;7.22;5.70;;;14.20;99.90;;;;;;4171927;28;20029;-66
2023/05/14 04:50:09;;;;;;;7.13;5.65;;;14.20;99.90;;;;;;4173007;28;20029;-68
2023/05/14 04:52:10;;;;;;;6.75;5.25;;;14.20;99.90;;;;;;4173852;28;20512;-67
2023/05/14 04:54:10;;;;;;;6.00;5.15;;;14.20;99.90;;;;;;4173211;28;20037;-67
2023/05/14 04:56:11;;;;;;;7.00;5.70;;;14.30;99.90;;;;;;4172944;28;20488;-67
2023/05/14 04:58:12;;;;;;;7.20;5.53;;;14.30;99.90;;;;;;4177885;28;20107;-67
2023/05/14 05:00:13;;;;;;;8.95;5.47;;;14.30;99.90;;;;;;4179431;28;20431;-67
2023/05/14 05:02:13;;;;;;;7.28;5.53;;;14.30;99.90;;;;;;4174609;28;20037;-67
2023/05/14 05:04:14;;;;;;;7.60;5.55;;;14.30;99.90;;;;;;4171816;28;20103;-67
2023/05/14 05:06:15;;;;;;;6.07;5.10;;;14.30;99.90;;;;;;4175678;28;20039;-67
2023/05/14 05:08:15;;;;;;;5.95;5.30;;;14.30;99.90;;;;;;4177277;28;20423;-67
2023/05/14 05:10:16;;;;;;;6.43;5.28;;;14.30;99.90;;;;;;4174389;28;20041;-67
2023/05/14 05:12:16;;;;;;;6.55;5.10;;;14.30;99.90;;;;;;4171895;28;20091;-67
2023/05/14 05:14:17;;;;;;;6.10;5.32;;;14.30;99.90;;;;;;4172738;28;20021;-67
2023/05/14 05:16:17;;;;;;;6.10;5.20;;;14.30;99.90;;;;;;4176066;28;20044;-68
2023/05/14 05:18:18;;;;;;;7.55;5.68;;;14.40;99.90;;;;;;4173030;28;20052;-68
2023/05/14 05:20:19;;;;;;;7.13;5.85;;;14.40;99.90;;;;;;4172680;28;20582;-68
2023/05/14 05:22:19;;;;;;;7.30;5.70;;;14.40;99.90;;;;;;4167578;28;20116;-68
2023/05/14 05:24:20;;;;;;;6.60;5.78;;;14.40;99.90;;;;;;4175412;28;20466;-67
2023/05/14 05:26:21;;;;;;;7.32;5.65;;;14.40;99.90;;;;;;4172770;28;20488;-67
2023/05/14 05:28:21;;;;;;;9.02;5.88;;;14.50;99.90;;;;;;4169927;28;20463;-67
2023/05/14 05:30:22;;;;;;;6.35;5.43;;;14.50;99.90;;;;;;4173273;28;20068;-68
2023/05/14 05:32:22;;;;;;;7.15;5.85;;;14.50;99.90;;;;;;4173682;28;20033;-67
2023/05/14 05:34:23;;;;;;;8.50;5.80;;;14.50;99.90;;;;;;4171456;28;20037;-68
2023/05/14 05:36:24;;;;;;;12.65;5.00;;;14.60;99.90;;;;;;4176152;28;20044;-67
2023/05/14 05:38:25;;;;;;;7.25;5.68;;;14.60;99.90;;;;;;4181475;28;20069;-68
2023/05/14 05:40:25;;;;;;;6.07;5.43;;;14.60;99.90;;;;;;4175844;28;20086;-68
2023/05/14 05:42:26;;;;;;;9.18;6.10;;;14.70;99.90;;;;;;4173848;28;20470;-68
2023/05/14 05:44:26;;;;;;;7.93;6.00;;;14.70;99.90;;;;;;4177058;28;20033;-68
2023/05/14 05:46:27;;;;;;;7.97;5.97;;;14.70;99.90;;;;;;4176359;28;20480;-67
2023/05/14 05:48:27;;;;;;;8.13;5.97;;;14.70;99.90;;;;;;4175866;28;20075;-68
2023/05/14 05:50:30;;;;;;;8.30;6.18;;;14.80;99.90;;;;;;4175177;28;20121;-68
2023/05/14 05:52:31;;;;;;;7.60;6.43;;;14.80;99.90;;;;;;4176354;28;20086;-68
2023/05/14 05:54:31;;;;;;;10.02;6.38;;;14.90;99.90;;;;;;4176600;28;20433;-69
2023/05/14 05:56:32;;;;;;;8.48;5.72;;;15.00;99.90;;;;;;4180995;28;20033;-68
2023/05/14 05:58:32;;;;;;;9.50;6.43;;;15.00;99.90;;;;;;4177681;28;20351;-68
2023/05/14 06:00:33;;;;;;;10.85;7.35;;;15.10;99.90;;;;;;4180282;28;20060;-68
2023/05/14 06:02:34;;;;;;;10.35;6.80;;;15.10;99.90;;;;;;4174462;28;20373;-69
2023/05/14 06:04:34;;;;;;;8.43;7.13;;;15.20;99.90;;;;;;4176267;28;20075;-68
2023/05/14 06:06:35;;;;;;;9.95;6.78;;;15.20;99.90;;;;;;4175550;28;20106;-68
2023/05/14 06:08:36;;;;;;;8.32;7.43;;;15.30;99.90;;;;;;4179386;28;20400;-69
2023/05/14 06:10:37;;;;;;;8.48;6.82;;;15.50;99.90;;;;;;4183997;28;20029;-69
2023/05/14 06:12:37;;;;;;;7.80;6.85;;;15.70;99.90;;;;;;4175570;28;20094;-69
2023/05/14 06:14:38;;;;;;;8.55;7.05;;;16.00;99.90;;;;;;4175857;28;20361;-68
2023/05/14 06:16:39;;;;;;;7.75;6.95;;;16.30;99.90;;;;;;4182279;28;20615;-68
2023/05/14 06:18:39;;;;;;;8.38;6.55;;;16.70;99.90;;;;;;4176227;28;20388;-69
2023/05/14 06:20:40;;;;;;;9.20;6.30;;;17.10;99.90;;;;;;4188436;28;20511;-68
2023/05/14 06:22:40;;;;;;;7.95;6.03;;;17.40;99.90;;;;;;4179966;28;20033;-69
2023/05/14 06:24:41;;;;;;;8.13;6.20;;;17.80;99.90;;;;;;4178381;28;20051;-70
2023/05/14 06:26:42;;;;;;;9.45;5.82;;;18.20;99.90;;;;;;4184570;28;20087;-68
2023/05/14 06:28:42;;;;;;;6.97;5.53;;;18.50;99.90;;;;;;4176619;28;20511;-69
2023/05/14 06:30:43;;;;;;;6.40;5.53;;;18.90;99.90;;;;;;4179437;28;20036;-70
2023/05/14 06:32:43;;;;;;;5.32;4.82;;;19.20;99.90;;;;;;4172877;28;20113;-70
2023/05/14 06:34:44;;;;;;;6.57;5.43;;;19.60;99.90;;;;;;4164498;28;20499;-70
2023/05/14 06:36:44;;;;;;;5.65;5.05;;;19.90;99.90;;;;;;4178686;28;20037;-70
2023/05/14 06:38:45;;;;;;;6.35;4.97;;;20.20;99.90;;;;;;4165554;28;20033;-70
2023/05/14 06:40:46;;;;;;;8.48;5.60;;;20.50;99.90;;;;;;4160398;28;20099;-71
2023/05/14 06:42:46;;;;;;;6.40;5.00;;;20.80;99.90;;;;;;4165175;28;20074;-71
2023/05/14 06:44:47;;;;;;;7.35;5.35;;;20.90;99.90;;;;;;4174894;28;20029;-70
2023/05/14 06:46:47;;;;;;;7.03;5.30;;;21.10;99.90;;;;;;4172703;28;20041;-70
2023/05/14 06:48:48;;;;;;;8.18;5.57;;;21.20;99.90;;;;;;4174139;28;20476;-71
2023/05/14 06:50:49;;;;;;;6.20;4.88;;;21.30;99.90;;;;;;4180641;28;20032;-70
2023/05/14 06:52:49;;;;;;;6.10;5.00;;;21.40;99.90;;;;;;4183600;28;20626;-71
2023/05/14 06:54:50;;;;;;;8.38;5.88;;;21.50;99.90;;;;;;4184984;28;20029;-71
2023/05/14 06:56:50;;;;;;;7.03;5.45;;;21.60;99.90;;;;;;4175316;28;20111;-70
2023/05/14 06:58:51;;;;;;;6.55;5.15;;;21.70;99.90;;;;;;4178187;28;20037;-70
2023/05/14 07:00:52;;;;;;;7.88;5.30;;;21.60;99.90;;;;;;4185795;28;20072;-70
2023/05/14 07:02:52;;;;;;;6.75;5.60;;;21.70;99.90;;;;;;4174830;28;20036;-71
2023/05/14 07:04:53;;;;;;;9.60;5.65;;;21.70;99.90;;;;;;4181484;28;20114;-70
2023/05/14 07:06:53;;;;;;;10.48;5.65;;;21.80;99.90;;;;;;4182129;28;20111;-71
2023/05/14 07:08:54;;;;;;;7.70;5.38;;;21.80;99.90;;;;;;4180981;28;22191;-71
2023/05/14 07:10:56;;;;;;;9.70;6.22;;;21.90;99.90;;;;;;4177370;28;20120;-70
2023/05/14 07:12:56;;;;;;;10.40;5.55;;;21.90;99.90;;;;;;4175473;28;20037;-70
2023/05/14 07:14:57;;;;;;;7.53;6.30;;;21.90;99.90;;;;;;4177033;28;20040;-70
2023/05/14 07:16:58;;;;;;;6.63;5.28;;;21.80;99.90;;;;;;4173743;28;20510;-70
2023/05/14 07:18:58;;;;;;;7.55;5.30;;;21.80;99.90;;;;;;4172138;28;20366;-70
2023/05/14 07:20:59;;;;;;;7.75;5.80;;;21.70;99.90;;;;;;4178174;28;20034;-70
2023/05/14 07:22:59;;;;;;;7.75;5.97;;;21.50;99.90;;;;;;4176736;28;20039;-70
2023/05/14 07:25:01;;;;;;;8.85;6.72;;;21.30;99.90;;;;;;4172461;28;20043;-69
2023/05/14 07:27:02;;;;;;;9.00;6.23;;;21.00;99.90;;;;;;4186418;28;20480;-69
2023/05/14 07:29:02;;;;;;;10.02;6.85;;;20.60;99.90;;;;;;4175885;28;20270;-70
2023/05/14 07:31:07;;;;;;;11.30;7.00;;;20.40;99.90;;;;;;4176902;28;20037;-69
2023/05/14 07:33:08;;;;;;;10.35;7.20;;;20.10;99.90;;;;;;4171926;28;20033;-69
2023/05/14 07:35:10;;;;;;;13.18;6.13;;;19.80;99.90;;;;;;4176333;28;20032;-70
2023/05/14 07:37:11;;;;;;;10.20;6.85;;;19.80;99.90;;;;;;4174632;28;20149;-70
2023/05/14 07:39:11;;;;;;;9.27;6.10;;;19.80;99.90;;;;;;4175280;28;20029;-70
2023/05/14 07:41:12;;;;;;;7.47;5.40;;;19.90;99.90;;;;;;4170277;28;20037;-70
2023/05/14 07:43:13;;;;;;;9.10;6.22;;;20.00;99.90;;;;;;4166594;28;20049;-69
2023/05/14 07:45:14;;;;;;;8.57;6.63;;;20.00;99.90;;;;;;4176372;28;20509;-70
2023/05/14 07:47:14;;;;;;;9.10;6.88;;;20.10;99.90;;;;;;4177154;28;20032;-70
2023/05/14 07:49:15;;;;;;;8.40;6.75;;;20.20;99.90;;;;;;4178420;28;20146;-69
2023/05/14 07:51:15;;;;;;;10.85;7.15;;;20.20;99.90;;;;;;4171217;28;20032;-69
2023/05/14 07:53:16;;;;;;;9.63;6.45;;;20.20;99.90;;;;;;4179165;28;20064;-69
2023/05/14 07:55:17;;;;;;;10.40;6.35;;;20.30;99.90;;;;;;4172797;28;20049;-69
2023/05/14 07:57:18;;;;;;;6.57;5.40;;;20.30;99.90;;;;;;4176037;28;20036;-69
2023/05/14 07:59:19;;;;;;;7.05;5.53;;;20.30;99.90;;;;;;4171583;28;20044;-69
2023/05/14 08:01:20;;;;;;;7.35;5.80;;;20.30;99.90;;;;;;4172733;28;20032;-70
2023/05/14 08:03:20;;;;;;;7.75;6.50;;;20.30;99.90;;;;;;4176019;28;20120;-69
2023/05/14 08:05:21;;;;;;;9.27;6.47;;;20.20;99.90;;;;;;4174821;28;21283;-69
2023/05/14 08:07:21;;;;;;;8.88;6.45;;;20.30;99.90;;;;;;4172728;28;20033;-69
2023/05/14 08:09:22;;;;;;;12.65;7.43;;;20.30;99.90;;;;;;4173946;28;20444;-68
2023/05/14 08:11:23;;;;;;;12.80;6.93;;;20.30;99.90;;;;;;4171058;28;20384;-68
2023/05/14 08:13:24;;;;;;;12.15;7.60;;;20.40;99.90;;;;;;4172527;28;20037;-68
2023/05/14 08:15:24;;;;;;;12.63;7.95;;;20.50;99.90;;;;;;4169118;28;20040;-69
2023/05/14 08:17:25;;;;;;;12.38;7.63;;;20.50;99.90;;;;;;4170310;28;20041;-69
2023/05/14 08:19:26;;;;;;;10.05;7.32;;;20.50;99.90;;;;;;4169913;28;20420;-68
2023/05/14 08:21:27;;;;;;;12.45;7.63;;;20.50;99.90;;;;;;4170993;28;20060;-69
2023/05/14 08:23:27;;;;;;;11.13;6.97;;;20.50;99.90;;;;;;4170861;28;20495;-69
2023/05/14 08:25:28;;;;;;;13.25;7.43;;;20.50;99.90;;;;;;4167857;28;20113;-69
2023/05/14 08:27:28;;;;;;;11.32;7.40;;;20.50;99.90;;;;;;4175711;28;20036;-69
2023/05/14 08:29:29;;;;;;;11.88;7.25;;;20.60;99.90;;;;;;4176486;28;20038;-69
2023/05/14 08:31:30;;;;;;;11.80;7.53;;;20.70;99.90;;;;;;4172473;28;20033;-68
2023/05/14 08:33:30;;;;;;;8.57;5.80;;;20.80;99.90;;;;;;4174708;28;20115;-69
2023/05/14 08:35:31;;;;;;;10.07;6.60;;;20.90;99.90;;;;;;4170587;28;20048;-68
2023/05/14 08:37:31;;;;;;;9.35;6.53;;;21.00;99.90;;;;;;4173837;28;20051;-69
2023/05/14 08:39:32;;;;;;;9.95;6.93;;;21.20;99.90;;;;;;4171234;28;20032;-69
2023/05/14 08:41:33;;;;;;;8.48;6.60;;;21.20;99.90;;;;;;4174404;28;20073;-69
2023/05/14 08:44:03;;;;;;;9.15;6.10;;;21.30;99.90;;;;;;4171382;28;20052;-69
2023/05/14 08:46:05;;;;;;;9.02;5.85;;;21.40;99.90;;;;;;4169228;28;20415;-69
2023/05/14 08:48:09;;;;;;;9.23;6.35;;;21.50;99.90;;;;;;4172986;28;20120;-69
2023/05/14 08:50:10;;;;;;;10.07;5.97;;;21.60;99.90;;;;;;4170877;28;20071;-70
2023/05/14 08:52:12;;;;;;;8.15;6.03;;;21.60;99.90;;;;;;4171561;28;20037;-68
2023/05/14 08:54:16;;;;;;;8.10;5.32;;;21.70;99.90;;;;;;4172335;28;20029;-69
2023/05/14 08:56:18;;;;;;;9.25;5.75;;;21.80;99.90;;;;;;4170648;28;20091;-68
2023/05/14 08:58:18;;;;;;;8.82;5.70;;;21.90;99.90;;;;;;4174602;28;20140;-69
2023/05/14 09:00:19;;;;;;;10.73;6.18;;;22.10;99.90;;;;;;4171820;28;20085;-69
2023/05/14 09:02:23;;;;;;;8.25;6.40;;;22.20;99.90;;;;;;4175642;28;20041;-68
2023/05/14 09:04:25;;;;;;;7.90;5.93;;;22.10;99.90;;;;;;4168512;28;20037;-69
2023/05/14 09:06:26;;;;;;;11.60;6.35;;;22.30;99.90;;;;;;4173314;28;20036;-69
2023/05/14 09:08:26;;;;;;;8.30;5.65;;;22.30;99.90;;;;;;4179425;28;20047;-69
2023/05/14 09:10:27;;;;;;;8.15;5.38;;;22.40;99.90;;;;;;4178217;28;20029;-69
2023/05/14 09:12:27;;;;;;;7.15;4.88;;;22.50;99.90;;;;;;4180382;28;20041;-68
2023/05/14 09:14:28;;;;;;;10.30;5.20;;;22.60;99.90;;;;;;4176152;28;20039;-69
2023/05/14 09:16:29;;;;;;;10.25;6.47;;;22.70;99.90;;;;;;4171247;28;20033;-69
2023/05/14 09:18:30;;;;;;;11.32;6.13;;;22.50;99.90;;;;;;4175946;28;20068;-69
2023/05/14 09:20:31;;;;;;;10.10;6.00;;;22.60;99.90;;;;;;4172680;28;20025;-69
2023/05/14 09:22:33;;;;;;;9.27;5.90;;;22.50;99.90;;;;;;4180441;28;20031;-68
2023/05/14 09:24:34;;;;;;;8.35;5.43;;;22.50;99.90;;;;;;4175200;28;20037;-69
2023/05/14 09:26:35;;;;;;;12.55;5.95;;;22.50;99.90;;;;;;4177741;28;20064;-69
2023/05/14 09:28:39;;;;;;;11.95;5.97;;;22.50;99.90;;;;;;4178964;28;20037;-68
2023/05/14 09:30:40;;;;;;;14.07;6.10;;;22.50;99.90;;;;;;4176937;28;20048;-68
2023/05/14 09:32:42;;;;;;;9.75;6.00;;;22.50;99.90;;;;;;4175084;28;20029;-69
2023/05/14 09:34:43;;;;;;;;;;;22.60;99.90;;;;;;4174552;28;20392;-68
2023/05/14 09:36:43;;;;;;;10.80;5.40;;;22.70;99.90;;;;;;4181137;28;20000;-69
2023/05/14 09:38:44;;;;;;;8.68;5.07;;;22.80;99.90;;;;;;4187222;28;20433;-68
2023/05/14 09:40:45;;;;;;;9.75;6.05;;;22.90;99.90;;;;;;4184065;28;20563;-68
2023/05/14 09:42:47;;;;;;;10.68;6.15;;;23.00;99.90;;;;;;4182361;28;20099;-69
2023/05/14 09:44:48;;;;;;;8.82;5.20;;;23.10;99.90;;;;;;4179687;28;20029;-69
2023/05/14 09:46:50;;;;;;;11.10;5.93;;;23.10;99.90;;;;;;4172331;28;20040;-68
2023/05/14 09:48:50;;;;;;;10.52;5.03;;;23.30;99.90;;;;;;4176280;28;20029;-69
2023/05/14 09:50:51;;;;;;;7.80;5.25;;;23.30;99.90;;;;;;4171297;28;20044;-68
2023/05/14 09:52:54;;;;;;;9.48;4.32;;;23.40;99.90;;;;;;4175004;28;20041;-69
2023/05/14 09:54:55;;;;;;;8.10;4.25;;;23.50;99.90;;;;;;4171728;28;20052;-69
2023/05/14 09:56:55;;;;;;;7.00;4.10;;;23.50;99.90;;;;;;4176981;28;20033;-69
2023/05/14 09:58:56;;;;;;;7.40;4.13;;;23.50;99.90;;;;;;4179870;28;20369;-69
2023/05/14 10:00:57;;;;;;;7.07;4.00;;;23.60;99.90;;;;;;4170024;28;20103;-68
2023/05/14 10:03:00;;;;;;;6.00;3.58;;;23.60;99.90;;;;;;4174294;28;20045;-68
2023/05/14 10:05:03;;;;;;;5.22;3.47;;;23.70;99.90;;;;;;4171507;28;20501;-68
2023/05/14 10:07:04;;;;;;;5.18;3.45;;;23.80;99.90;;;;;;4175599;28;20161;-68
2023/05/14 10:09:11;;;;;;;7.13;3.42;;;23.80;99.90;;;;;;4170916;28;20059;-68
2023/05/14 10:11:21;;;;;;;6.60;3.05;;;23.90;99.90;;;;;;4172321;28;20151;-68
2023/05/14 10:13:29;;;;;;;4.45;3.20;;;23.90;99.90;;;;;;4174251;28;20095;-68
2023/05/14 10:15:36;;;;;;;3.75;2.70;;;24.00;99.90;;;;;;4173113;28;20120;-68
2023/05/14 10:17:39;;;;;;;5.40;3.03;;;24.10;99.90;;;;;;4178016;28;20372;-68
2023/05/14 10:19:40;;;;;;;3.05;2.75;;;24.10;99.00;;;;;;4178581;28;20118;-68
2023/05/14 10:21:44;;;;;;;3.72;2.92;;;24.10;96.80;;;;;;4174075;28;20122;-68
2023/05/14 10:23:46;;;;;;;4.20;2.80;;;24.10;99.00;;;;;;4171134;28;20033;-71
2023/05/14 10:25:47;;;;;;;5.75;3.58;;;24.10;95.90;;;;;;4176751;28;20094;-68
2023/05/14 10:27:48;;;;;;;4.72;3.25;;;23.80;95.50;;;;;;4174299;28;20480;-69
2023/05/14 10:29:53;;;;;;;3.33;2.80;;;23.70;96.50;;;;;;4171460;28;20045;-68
2023/05/14 10:31:54;;;;;;;3.03;2.70;;;23.80;98.20;;;;;;4173995;28;20090;-68